Grouse Creek, UT (84313)

6:14 AM MDT on September 21, 2014 (GMT -0600)
RAWS ROSEBUD UT US | Change Station
CLOSE
Current Station
Personal Weather Station
Location: Grouse Creek, UT
Elevation: 4986 ft
Nearby Weather Stations

Elev 4986 ft 41.61 °N, 113.59 °W | Updated 32 minutes ago

Mostly Cloudy
Mostly Cloudy
62 °F
Feels Like 62 °F
N
9
Wind Variable Wind from NNW
Gusts 12.0 mph

Today
High -- | Low -- °F
--% Chance of Precip.
Yesterday
High -- | Low -- °F
Precip. -- in
7:21 AM 7:33 PM
Waning Crescent, 7% visible
Pressure 28.92 in
Visibility 10.0 miles
Clouds Few 11000 ft
Dew Point 45 °F
Humidity 54%
Rainfall 0.00 in
Snow Depth 0 in , 0 in , 0 in
UV 0 out of 12
Pollen 6.70 out of 12
Ozone Good
PM2.5 Good
Flu Activity Not available.
METAR KU16 210958Z AUTO 00000KT 10SM FEW110 22/08 A3004 RMK AO2 SLP794 T02220078 $

More Conditions Fewer Conditions

Pressure 28.92 in
Visibility 10.0 miles
Clouds Few 11000 ft
Dew Point 45 °F
Humidity 54%
Rainfall 0.00 in
Snow Depth 0 in , 0 in , 0 in
UV 0 out of 12
Pollen 6.70 out of 12
Ozone Good
PM2.5 Good
Flu Activity Not available.
METAR KU16 210958Z AUTO 00000KT 10SM FEW110 22/08 A3004 RMK AO2 SLP794 T02220078 $

More Conditions Fewer Conditions

10-Day Weather Forecast

Almanac

Astronomy

Sep. 21, 2014 Rise Set
Actual Time 7:21 AM MDT 7:33 PM MDT
Civil Twilight 6:53 AM MDT 8:01 PM MDT
Nautical Twilight 6:21 AM MDT 8:33 PM MDT
Astronomical Twilight 5:48 AM MDT 9:06 PM MDT
Moon 4:57 AM MDT 6:13 PM MDT
Length of Visible Light 13h 07m
Length of Day
12h 12m
Tomorrow will be 2m 45s shorter.
Waning Crescent, 7% of the Moon is Illuminated
Today
Waning Crescent
Sep 24
New
Oct 1
First Quarter
Oct 8
Full
Oct 15
Last Quarter

Today's Extremes

State Highs State Lows

Community

WunderPhotos

Upload Photos

1,755,126 photos uploaded!

Nearby

Air Quality

  Air Quality AQ Index Pollutant
Yesterday Good
OZONE
Yesterday Good
PM2.5
Current Good
OZONE
Current Good
PM2.5

Snow Depth

Station Depth Elevation
Lakefork Basin 0 in 10900 ft
Agua Canyon 0 in 8900 ft
Brown Duck 0 in 10600 ft
Trial Lake 2 in 9960 ft
Donkey Reservoir 0 in 9800 ft

Earthquake Activity

City Distance Mag. Time & Date
No recent earthquake activity has been reported nearby.
Minimum magnitude displayed is 2.5.

Coastal Water Temperatures

Place Temperature
No Stations Reporting

Nearby Weather Stations